sensor_id;sensor_type;location;lat;lon;timestamp;P1;durP1;ratioP1;P2;durP2;ratioP2
20482;SDS011;10400;53.198;6.592;2022-11-20T00:00:26;18.47;;;10.80;;
20482;SDS011;10400;53.198;6.592;2022-11-20T00:02:52;17.83;;;10.50;;
20482;SDS011;10400;53.198;6.592;2022-11-20T00:05:18;17.10;;;10.53;;
20482;SDS011;10400;53.198;6.592;2022-11-20T00:07:44;15.90;;;9.97;;
20482;SDS011;10400;53.198;6.592;2022-11-20T00:10:10;18.90;;;10.30;;
20482;SDS011;10400;53.198;6.592;2022-11-20T00:12:35;15.03;;;9.33;;
20482;SDS011;10400;53.198;6.592;2022-11-20T00:15:01;17.87;;;9.90;;
20482;SDS011;10400;53.198;6.592;2022-11-20T00:17:27;19.90;;;10.90;;
20482;SDS011;10400;53.198;6.592;2022-11-20T00:19:52;22.27;;;11.00;;
20482;SDS011;10400;53.198;6.592;2022-11-20T00:22:18;19.33;;;10.83;;
20482;SDS011;10400;53.198;6.592;2022-11-20T00:24:44;19.03;;;10.77;;
20482;SDS011;10400;53.198;6.592;2022-11-20T00:27:09;19.00;;;10.87;;
20482;SDS011;10400;53.198;6.592;2022-11-20T00:29:35;17.00;;;10.33;;
20482;SDS011;10400;53.198;6.592;2022-11-20T00:32:00;16.67;;;9.70;;
20482;SDS011;10400;53.198;6.592;2022-11-20T00:34:26;17.53;;;11.10;;
20482;SDS011;10400;53.198;6.592;2022-11-20T00:36:52;16.20;;;10.00;;
20482;SDS011;10400;53.198;6.592;2022-11-20T00:39:17;18.13;;;10.57;;
20482;SDS011;10400;53.198;6.592;2022-11-20T00:41:43;16.57;;;10.27;;
20482;SDS011;10400;53.198;6.592;2022-11-20T00:44:09;18.23;;;10.33;;
20482;SDS011;10400;53.198;6.592;2022-11-20T00:46:35;15.70;;;9.47;;
20482;SDS011;10400;53.198;6.592;2022-11-20T00:49:01;16.67;;;10.13;;
20482;SDS011;10400;53.198;6.592;2022-11-20T00:51:27;16.93;;;9.87;;
20482;SDS011;10400;53.198;6.592;2022-11-20T00:53:54;15.23;;;10.17;;
20482;SDS011;10400;53.198;6.592;2022-11-20T00:56:21;20.00;;;9.60;;
20482;SDS011;10400;53.198;6.592;2022-11-20T00:58:47;15.43;;;9.80;;
20482;SDS011;10400;53.198;6.592;2022-11-20T01:01:18;17.17;;;9.90;;
20482;SDS011;10400;53.198;6.592;2022-11-20T01:03:46;15.53;;;9.50;;
20482;SDS011;10400;53.198;6.592;2022-11-20T01:06:20;16.17;;;9.37;;
20482;SDS011;10400;53.198;6.592;2022-11-20T01:08:48;16.30;;;9.97;;
20482;SDS011;10400;53.198;6.592;2022-11-20T01:11:19;16.40;;;9.13;;
20482;SDS011;10400;53.198;6.592;2022-11-20T01:13:46;15.30;;;9.77;;
20482;SDS011;10400;53.198;6.592;2022-11-20T01:18:44;15.67;;;10.07;;
20482;SDS011;10400;53.198;6.592;2022-11-20T01:21:15;15.30;;;9.37;;
20482;SDS011;10400;53.198;6.592;2022-11-20T01:23:44;15.50;;;10.00;;
20482;SDS011;10400;53.198;6.592;2022-11-20T01:26:11;16.00;;;9.90;;
20482;SDS011;10400;53.198;6.592;2022-11-20T01:28:38;18.00;;;10.63;;
20482;SDS011;10400;53.198;6.592;2022-11-20T01:33:47;16.87;;;10.40;;
20482;SDS011;10400;53.198;6.592;2022-11-20T01:36:14;16.83;;;10.00;;
20482;SDS011;10400;53.198;6.592;2022-11-20T01:38:41;18.33;;;10.53;;
20482;SDS011;10400;53.198;6.592;2022-11-20T01:41:07;17.53;;;10.00;;
20482;SDS011;10400;53.198;6.592;2022-11-20T01:43:33;17.13;;;9.87;;
20482;SDS011;10400;53.198;6.592;2022-11-20T01:46:04;16.03;;;9.30;;
20482;SDS011;10400;53.198;6.592;2022-11-20T01:51:33;16.07;;;10.07;;
20482;SDS011;10400;53.198;6.592;2022-11-20T01:54:11;16.83;;;10.37;;
20482;SDS011;10400;53.198;6.592;2022-11-20T01:56:42;17.13;;;10.30;;
20482;SDS011;10400;53.198;6.592;2022-11-20T01:59:10;16.80;;;9.63;;
20482;SDS011;10400;53.198;6.592;2022-11-20T02:01:39;15.83;;;9.63;;
20482;SDS011;10400;53.198;6.592;2022-11-20T02:04:05;18.47;;;10.40;;
20482;SDS011;10400;53.198;6.592;2022-11-20T02:06:35;15.77;;;10.10;;
20482;SDS011;10400;53.198;6.592;2022-11-20T02:09:04;17.60;;;10.17;;
20482;SDS011;10400;53.198;6.592;2022-11-20T02:11:30;14.03;;;9.80;;
20482;SDS011;10400;53.198;6.592;2022-11-20T02:13:56;17.67;;;10.80;;
20482;SDS011;10400;53.198;6.592;2022-11-20T02:16:24;15.57;;;9.97;;
20482;SDS011;10400;53.198;6.592;2022-11-20T02:18:53;14.47;;;10.03;;
20482;SDS011;10400;53.198;6.592;2022-11-20T02:21:40;17.77;;;10.80;;
20482;SDS011;10400;53.198;6.592;2022-11-20T02:24:16;15.83;;;10.20;;
20482;SDS011;10400;53.198;6.592;2022-11-20T02:26:49;14.47;;;9.77;;
20482;SDS011;10400;53.198;6.592;2022-11-20T02:29:38;18.63;;;10.40;;
20482;SDS011;10400;53.198;6.592;2022-11-20T02:32:25;16.40;;;10.70;;
20482;SDS011;10400;53.198;6.592;2022-11-20T02:37:43;19.90;;;10.90;;
20482;SDS011;10400;53.198;6.592;2022-11-20T02:40:09;16.47;;;10.43;;
20482;SDS011;10400;53.198;6.592;2022-11-20T02:42:36;18.40;;;10.80;;
20482;SDS011;10400;53.198;6.592;2022-11-20T02:45:02;15.37;;;10.10;;
20482;SDS011;10400;53.198;6.592;2022-11-20T02:47:31;19.00;;;10.93;;
20482;SDS011;10400;53.198;6.592;2022-11-20T02:49:57;16.17;;;10.77;;
20482;SDS011;10400;53.198;6.592;2022-11-20T02:52:23;19.43;;;11.13;;
20482;SDS011;10400;53.198;6.592;2022-11-20T02:54:50;16.33;;;10.50;;
20482;SDS011;10400;53.198;6.592;2022-11-20T02:57:15;16.97;;;10.80;;
20482;SDS011;10400;53.198;6.592;2022-11-20T02:59:41;15.20;;;9.60;;
20482;SDS011;10400;53.198;6.592;2022-11-20T03:02:07;18.63;;;11.23;;
20482;SDS011;10400;53.198;6.592;2022-11-20T03:04:32;14.90;;;10.03;;
20482;SDS011;10400;53.198;6.592;2022-11-20T03:06:58;14.80;;;9.80;;
20482;SDS011;10400;53.198;6.592;2022-11-20T03:09:23;15.20;;;10.13;;
20482;SDS011;10400;53.198;6.592;2022-11-20T03:11:49;15.97;;;9.90;;
20482;SDS011;10400;53.198;6.592;2022-11-20T03:14:15;15.43;;;10.40;;
20482;SDS011;10400;53.198;6.592;2022-11-20T03:16:41;16.43;;;9.47;;
20482;SDS011;10400;53.198;6.592;2022-11-20T03:19:06;16.30;;;10.37;;
20482;SDS011;10400;53.198;6.592;2022-11-20T03:21:35;17.80;;;10.23;;
20482;SDS011;10400;53.198;6.592;2022-11-20T03:24:01;18.23;;;10.67;;
20482;SDS011;10400;53.198;6.592;2022-11-20T03:26:27;14.53;;;9.30;;
20482;SDS011;10400;53.198;6.592;2022-11-20T03:28:54;15.60;;;9.77;;
20482;SDS011;10400;53.198;6.592;2022-11-20T03:31:26;17.67;;;10.70;;
20482;SDS011;10400;53.198;6.592;2022-11-20T03:33:53;13.97;;;9.57;;
20482;SDS011;10400;53.198;6.592;2022-11-20T03:36:20;16.37;;;9.83;;
20482;SDS011;10400;53.198;6.592;2022-11-20T03:38:47;14.80;;;9.10;;
20482;SDS011;10400;53.198;6.592;2022-11-20T03:41:14;15.37;;;9.87;;
20482;SDS011;10400;53.198;6.592;2022-11-20T03:43:58;15.67;;;9.33;;
20482;SDS011;10400;53.198;6.592;2022-11-20T03:46:25;19.23;;;9.67;;
20482;SDS011;10400;53.198;6.592;2022-11-20T03:48:51;15.23;;;9.20;;
20482;SDS011;10400;53.198;6.592;2022-11-20T03:51:18;14.80;;;10.33;;
20482;SDS011;10400;53.198;6.592;2022-11-20T03:53:49;15.80;;;9.43;;
20482;SDS011;10400;53.198;6.592;2022-11-20T03:56:17;15.07;;;8.97;;
20482;SDS011;10400;53.198;6.592;2022-11-20T03:58:44;15.03;;;9.40;;
20482;SDS011;10400;53.198;6.592;2022-11-20T04:01:52;15.13;;;9.53;;
20482;SDS011;10400;53.198;6.592;2022-11-20T04:04:00;17.27;;;9.90;;
20482;SDS011;10400;53.198;6.592;2022-11-20T04:06:28;17.37;;;10.20;;
20482;SDS011;10400;53.198;6.592;2022-11-20T04:08:56;16.13;;;10.03;;
20482;SDS011;10400;53.198;6.592;2022-11-20T04:11:23;14.60;;;10.47;;
20482;SDS011;10400;53.198;6.592;2022-11-20T04:13:54;14.63;;;9.27;;
20482;SDS011;10400;53.198;6.592;2022-11-20T04:16:22;17.30;;;9.47;;
20482;SDS011;10400;53.198;6.592;2022-11-20T04:18:52;15.43;;;9.43;;
20482;SDS011;10400;53.198;6.592;2022-11-20T04:21:19;15.73;;;9.57;;
20482;SDS011;10400;53.198;6.592;2022-11-20T04:23:45;15.63;;;9.40;;
20482;SDS011;10400;53.198;6.592;2022-11-20T04:26:11;14.47;;;9.23;;
20482;SDS011;10400;53.198;6.592;2022-11-20T04:28:37;13.03;;;8.73;;
20482;SDS011;10400;53.198;6.592;2022-11-20T04:31:08;13.70;;;9.07;;
20482;SDS011;10400;53.198;6.592;2022-11-20T04:33:35;15.67;;;9.50;;
20482;SDS011;10400;53.198;6.592;2022-11-20T04:36:21;15.10;;;10.23;;
20482;SDS011;10400;53.198;6.592;2022-11-20T04:39:06;13.53;;;8.40;;
20482;SDS011;10400;53.198;6.592;2022-11-20T04:41:33;13.50;;;8.43;;
20482;SDS011;10400;53.198;6.592;2022-11-20T04:44:00;14.43;;;8.70;;
20482;SDS011;10400;53.198;6.592;2022-11-20T04:46:28;14.17;;;8.87;;
20482;SDS011;10400;53.198;6.592;2022-11-20T04:48:58;15.87;;;9.27;;
20482;SDS011;10400;53.198;6.592;2022-11-20T04:51:24;14.23;;;9.87;;
20482;SDS011;10400;53.198;6.592;2022-11-20T04:53:50;12.80;;;8.97;;
20482;SDS011;10400;53.198;6.592;2022-11-20T04:56:15;13.03;;;9.57;;
20482;SDS011;10400;53.198;6.592;2022-11-20T04:58:41;14.33;;;9.17;;
20482;SDS011;10400;53.198;6.592;2022-11-20T05:01:09;13.70;;;9.17;;
20482;SDS011;10400;53.198;6.592;2022-11-20T05:03:43;14.80;;;9.20;;
20482;SDS011;10400;53.198;6.592;2022-11-20T05:06:10;13.30;;;8.37;;
20482;SDS011;10400;53.198;6.592;2022-11-20T05:08:38;13.80;;;9.07;;
20482;SDS011;10400;53.198;6.592;2022-11-20T05:11:05;13.27;;;8.53;;
20482;SDS011;10400;53.198;6.592;2022-11-20T05:13:32;12.77;;;8.87;;
20482;SDS011;10400;53.198;6.592;2022-11-20T05:16:05;12.70;;;8.70;;
20482;SDS011;10400;53.198;6.592;2022-11-20T05:18:35;14.73;;;8.67;;
20482;SDS011;10400;53.198;6.592;2022-11-20T05:21:02;13.90;;;7.77;;
20482;SDS011;10400;53.198;6.592;2022-11-20T05:23:29;15.23;;;8.90;;
20482;SDS011;10400;53.198;6.592;2022-11-20T05:25:56;12.23;;;8.87;;
20482;SDS011;10400;53.198;6.592;2022-11-20T05:28:22;12.20;;;7.80;;
20482;SDS011;10400;53.198;6.592;2022-11-20T05:30:49;16.40;;;8.40;;
20482;SDS011;10400;53.198;6.592;2022-11-20T05:33:15;13.70;;;8.37;;
20482;SDS011;10400;53.198;6.592;2022-11-20T05:35:41;13.97;;;8.27;;
20482;SDS011;10400;53.198;6.592;2022-11-20T05:38:07;14.17;;;8.10;;
20482;SDS011;10400;53.198;6.592;2022-11-20T05:40:32;12.07;;;8.10;;
20482;SDS011;10400;53.198;6.592;2022-11-20T05:42:59;12.57;;;8.30;;
20482;SDS011;10400;53.198;6.592;2022-11-20T05:45:25;10.93;;;8.03;;
20482;SDS011;10400;53.198;6.592;2022-11-20T05:47:50;13.67;;;9.00;;
20482;SDS011;10400;53.198;6.592;2022-11-20T05:50:16;13.00;;;8.60;;
20482;SDS011;10400;53.198;6.592;2022-11-20T05:52:42;13.23;;;7.93;;
20482;SDS011;10400;53.198;6.592;2022-11-20T05:55:07;12.63;;;8.27;;
20482;SDS011;10400;53.198;6.592;2022-11-20T05:57:34;12.30;;;8.43;;
20482;SDS011;10400;53.198;6.592;2022-11-20T05:59:59;11.40;;;7.70;;
20482;SDS011;10400;53.198;6.592;2022-11-20T06:02:25;14.57;;;9.03;;
20482;SDS011;10400;53.198;6.592;2022-11-20T06:04:51;13.57;;;8.53;;
20482;SDS011;10400;53.198;6.592;2022-11-20T06:07:16;13.43;;;8.53;;
20482;SDS011;10400;53.198;6.592;2022-11-20T06:09:42;15.43;;;8.33;;
20482;SDS011;10400;53.198;6.592;2022-11-20T06:12:08;12.37;;;8.40;;
20482;SDS011;10400;53.198;6.592;2022-11-20T06:14:33;13.80;;;8.87;;
20482;SDS011;10400;53.198;6.592;2022-11-20T06:16:59;12.33;;;8.27;;
20482;SDS011;10400;53.198;6.592;2022-11-20T06:19:25;14.17;;;8.37;;
20482;SDS011;10400;53.198;6.592;2022-11-20T06:21:50;13.77;;;8.73;;
20482;SDS011;10400;53.198;6.592;2022-11-20T06:24:16;14.70;;;9.27;;
20482;SDS011;10400;53.198;6.592;2022-11-20T06:26:43;11.97;;;8.30;;
20482;SDS011;10400;53.198;6.592;2022-11-20T06:29:08;11.57;;;7.60;;
20482;SDS011;10400;53.198;6.592;2022-11-20T06:31:34;12.43;;;8.13;;
20482;SDS011;10400;53.198;6.592;2022-11-20T06:34:02;12.50;;;8.43;;
20482;SDS011;10400;53.198;6.592;2022-11-20T06:36:29;11.90;;;7.93;;
20482;SDS011;10400;53.198;6.592;2022-11-20T06:38:55;11.23;;;7.63;;
20482;SDS011;10400;53.198;6.592;2022-11-20T06:41:21;12.63;;;7.97;;
20482;SDS011;10400;53.198;6.592;2022-11-20T06:43:47;11.07;;;7.53;;
20482;SDS011;10400;53.198;6.592;2022-11-20T06:46:14;12.97;;;8.30;;
20482;SDS011;10400;53.198;6.592;2022-11-20T06:48:42;14.07;;;8.40;;
20482;SDS011;10400;53.198;6.592;2022-11-20T06:51:08;13.10;;;8.37;;
20482;SDS011;10400;53.198;6.592;2022-11-20T06:53:34;12.17;;;8.17;;
20482;SDS011;10400;53.198;6.592;2022-11-20T06:56:01;13.07;;;8.33;;
20482;SDS011;10400;53.198;6.592;2022-11-20T06:58:27;13.40;;;8.53;;
20482;SDS011;10400;53.198;6.592;2022-11-20T07:00:58;12.57;;;8.37;;
20482;SDS011;10400;53.198;6.592;2022-11-20T07:03:24;11.63;;;7.87;;
20482;SDS011;10400;53.198;6.592;2022-11-20T07:05:50;12.07;;;8.17;;
20482;SDS011;10400;53.198;6.592;2022-11-20T07:08:15;12.03;;;8.03;;
20482;SDS011;10400;53.198;6.592;2022-11-20T07:10:41;10.87;;;7.53;;
20482;SDS011;10400;53.198;6.592;2022-11-20T07:13:06;12.10;;;7.50;;
20482;SDS011;10400;53.198;6.592;2022-11-20T07:15:32;13.33;;;8.10;;
20482;SDS011;10400;53.198;6.592;2022-11-20T07:17:58;10.83;;;7.73;;
20482;SDS011;10400;53.198;6.592;2022-11-20T07:20:25;13.13;;;8.50;;
20482;SDS011;10400;53.198;6.592;2022-11-20T07:22:54;13.63;;;8.30;;
20482;SDS011;10400;53.198;6.592;2022-11-20T07:25:20;13.60;;;8.07;;
20482;SDS011;10400;53.198;6.592;2022-11-20T07:27:47;11.93;;;8.00;;
20482;SDS011;10400;53.198;6.592;2022-11-20T07:30:13;13.23;;;8.50;;
20482;SDS011;10400;53.198;6.592;2022-11-20T07:32:39;11.80;;;8.00;;
20482;SDS011;10400;53.198;6.592;2022-11-20T07:35:05;13.37;;;7.53;;
20482;SDS011;10400;53.198;6.592;2022-11-20T07:37:33;12.50;;;7.60;;
20482;SDS011;10400;53.198;6.592;2022-11-20T07:39:59;12.77;;;8.30;;
20482;SDS011;10400;53.198;6.592;2022-11-20T07:42:25;11.47;;;8.13;;
20482;SDS011;10400;53.198;6.592;2022-11-20T07:44:50;10.87;;;7.13;;
20482;SDS011;10400;53.198;6.592;2022-11-20T07:47:16;12.73;;;8.10;;
20482;SDS011;10400;53.198;6.592;2022-11-20T07:49:42;14.23;;;8.87;;
20482;SDS011;10400;53.198;6.592;2022-11-20T07:52:07;12.87;;;8.37;;
20482;SDS011;10400;53.198;6.592;2022-11-20T07:54:33;13.40;;;8.13;;
20482;SDS011;10400;53.198;6.592;2022-11-20T07:56:58;11.87;;;7.80;;
20482;SDS011;10400;53.198;6.592;2022-11-20T07:59:24;12.57;;;8.27;;
20482;SDS011;10400;53.198;6.592;2022-11-20T08:01:49;12.53;;;7.37;;
20482;SDS011;10400;53.198;6.592;2022-11-20T08:04:15;13.73;;;7.93;;
20482;SDS011;10400;53.198;6.592;2022-11-20T08:06:41;12.90;;;8.17;;
20482;SDS011;10400;53.198;6.592;2022-11-20T08:09:07;12.07;;;8.80;;
20482;SDS011;10400;53.198;6.592;2022-11-20T08:11:32;11.70;;;7.93;;
20482;SDS011;10400;53.198;6.592;2022-11-20T08:14:17;13.30;;;8.37;;
20482;SDS011;10400;53.198;6.592;2022-11-20T08:16:43;11.47;;;7.23;;
20482;SDS011;10400;53.198;6.592;2022-11-20T08:19:11;12.50;;;8.40;;
20482;SDS011;10400;53.198;6.592;2022-11-20T08:21:37;12.93;;;8.47;;
20482;SDS011;10400;53.198;6.592;2022-11-20T08:24:03;12.33;;;8.00;;
20482;SDS011;10400;53.198;6.592;2022-11-20T08:26:29;13.07;;;8.50;;
20482;SDS011;10400;53.198;6.592;2022-11-20T08:28:55;11.87;;;8.43;;
20482;SDS011;10400;53.198;6.592;2022-11-20T08:31:22;12.83;;;8.60;;
20482;SDS011;10400;53.198;6.592;2022-11-20T08:33:50;10.90;;;7.47;;
20482;SDS011;10400;53.198;6.592;2022-11-20T08:36:15;14.17;;;8.80;;
20482;SDS011;10400;53.198;6.592;2022-11-20T08:38:41;12.60;;;8.17;;
20482;SDS011;10400;53.198;6.592;2022-11-20T08:41:11;12.30;;;8.20;;
20482;SDS011;10400;53.198;6.592;2022-11-20T08:43:52;14.53;;;8.33;;
20482;SDS011;10400;53.198;6.592;2022-11-20T08:46:20;12.57;;;8.53;;
20482;SDS011;10400;53.198;6.592;2022-11-20T08:48:47;13.03;;;8.87;;
20482;SDS011;10400;53.198;6.592;2022-11-20T08:51:13;12.60;;;8.90;;
20482;SDS011;10400;53.198;6.592;2022-11-20T08:53:39;12.43;;;8.00;;
20482;SDS011;10400;53.198;6.592;2022-11-20T08:56:05;12.93;;;8.57;;
20482;SDS011;10400;53.198;6.592;2022-11-20T08:58:31;11.50;;;7.83;;
20482;SDS011;10400;53.198;6.592;2022-11-20T09:00:57;13.97;;;8.97;;
20482;SDS011;10400;53.198;6.592;2022-11-20T09:03:22;12.37;;;8.43;;
20482;SDS011;10400;53.198;6.592;2022-11-20T09:05:48;12.27;;;8.30;;
20482;SDS011;10400;53.198;6.592;2022-11-20T09:08:14;14.03;;;8.67;;
20482;SDS011;10400;53.198;6.592;2022-11-20T09:10:39;13.43;;;8.17;;
20482;SDS011;10400;53.198;6.592;2022-11-20T09:13:05;12.70;;;8.10;;
20482;SDS011;10400;53.198;6.592;2022-11-20T09:15:31;12.73;;;8.67;;
20482;SDS011;10400;53.198;6.592;2022-11-20T09:17:58;11.60;;;8.13;;
20482;SDS011;10400;53.198;6.592;2022-11-20T09:20:29;10.77;;;7.63;;
20482;SDS011;10400;53.198;6.592;2022-11-20T09:22:55;12.80;;;7.93;;
20482;SDS011;10400;53.198;6.592;2022-11-20T09:25:22;15.47;;;8.47;;
20482;SDS011;10400;53.198;6.592;2022-11-20T09:27:48;11.60;;;7.60;;
20482;SDS011;10400;53.198;6.592;2022-11-20T09:30:19;13.27;;;7.50;;
20482;SDS011;10400;53.198;6.592;2022-11-20T09:32:44;11.30;;;7.70;;
20482;SDS011;10400;53.198;6.592;2022-11-20T09:35:10;11.50;;;8.00;;
20482;SDS011;10400;53.198;6.592;2022-11-20T09:37:36;13.50;;;8.30;;
20482;SDS011;10400;53.198;6.592;2022-11-20T09:40:02;11.40;;;7.77;;
20482;SDS011;10400;53.198;6.592;2022-11-20T09:53:35;13.97;;;7.30;;
20482;SDS011;10400;53.198;6.592;2022-11-20T09:56:21;10.23;;;7.03;;
20482;SDS011;10400;53.198;6.592;2022-11-20T09:58:51;10.53;;;7.67;;
20482;SDS011;10400;53.198;6.592;2022-11-20T10:01:20;11.73;;;7.77;;
20482;SDS011;10400;53.198;6.592;2022-11-20T10:03:58;9.27;;;6.87;;
20482;SDS011;10400;53.198;6.592;2022-11-20T10:09:31;11.33;;;7.10;;
20482;SDS011;10400;53.198;6.592;2022-11-20T10:25:20;12.07;;;7.57;;
20482;SDS011;10400;53.198;6.592;2022-11-20T10:27:56;19.97;;;11.90;;
20482;SDS011;10400;53.198;6.592;2022-11-20T10:30:25;55.43;;;34.70;;
20482;SDS011;10400;53.198;6.592;2022-11-20T10:32:53;34.90;;;19.73;;
20482;SDS011;10400;53.198;6.592;2022-11-20T10:35:31;12.73;;;7.60;;
20482;SDS011;10400;53.198;6.592;2022-11-20T10:37:59;12.93;;;7.43;;
20482;SDS011;10400;53.198;6.592;2022-11-20T10:40:41;10.07;;;6.67;;
20482;SDS011;10400;53.198;6.592;2022-11-20T10:43:16;11.83;;;7.30;;
20482;SDS011;10400;53.198;6.592;2022-11-20T10:48:22;9.97;;;6.83;;
20482;SDS011;10400;53.198;6.592;2022-11-20T10:53:52;13.70;;;7.47;;
20482;SDS011;10400;53.198;6.592;2022-11-20T11:01:44;9.37;;;6.87;;
20482;SDS011;10400;53.198;6.592;2022-11-20T11:04:17;10.33;;;7.43;;
20482;SDS011;10400;53.198;6.592;2022-11-20T11:06:53;9.70;;;6.77;;
20482;SDS011;10400;53.198;6.592;2022-11-20T11:09:34;10.00;;;7.20;;
20482;SDS011;10400;53.198;6.592;2022-11-20T11:12:06;10.70;;;7.20;;
20482;SDS011;10400;53.198;6.592;2022-11-20T11:15:11;10.87;;;7.33;;
20482;SDS011;10400;53.198;6.592;2022-11-20T11:17:29;10.07;;;7.33;;
20482;SDS011;10400;53.198;6.592;2022-11-20T11:20:00;9.77;;;6.83;;
20482;SDS011;10400;53.198;6.592;2022-11-20T11:22:42;11.73;;;7.37;;
20482;SDS011;10400;53.198;6.592;2022-11-20T11:28:19;10.20;;;6.87;;
20482;SDS011;10400;53.198;6.592;2022-11-20T11:30:51;11.90;;;6.87;;
20482;SDS011;10400;53.198;6.592;2022-11-20T11:33:20;14.57;;;6.87;;
20482;SDS011;10400;53.198;6.592;2022-11-20T11:35:51;8.83;;;6.63;;
20482;SDS011;10400;53.198;6.592;2022-11-20T11:38:34;17.20;;;6.83;;
20482;SDS011;10400;53.198;6.592;2022-11-20T11:41:02;9.13;;;6.03;;
20482;SDS011;10400;53.198;6.592;2022-11-20T11:43:30;12.83;;;7.10;;
20482;SDS011;10400;53.198;6.592;2022-11-20T11:48:57;13.57;;;6.63;;
20482;SDS011;10400;53.198;6.592;2022-11-20T11:51:34;10.07;;;6.33;;
20482;SDS011;10400;53.198;6.592;2022-11-20T11:54:04;12.97;;;7.33;;
20482;SDS011;10400;53.198;6.592;2022-11-20T11:56:37;10.13;;;6.70;;
20482;SDS011;10400;53.198;6.592;2022-11-20T11:59:04;11.30;;;6.63;;
20482;SDS011;10400;53.198;6.592;2022-11-20T12:01:47;9.37;;;6.73;;
20482;SDS011;10400;53.198;6.592;2022-11-20T12:07:24;9.37;;;6.43;;
20482;SDS011;10400;53.198;6.592;2022-11-20T12:10:01;8.90;;;6.13;;
20482;SDS011;10400;53.198;6.592;2022-11-20T12:12:29;9.77;;;5.73;;
20482;SDS011;10400;53.198;6.592;2022-11-20T12:15:01;8.50;;;5.90;;
20482;SDS011;10400;53.198;6.592;2022-11-20T12:17:29;9.33;;;6.40;;
20482;SDS011;10400;53.198;6.592;2022-11-20T12:19:54;11.10;;;6.20;;
20482;SDS011;10400;53.198;6.592;2022-11-20T12:25:04;9.90;;;6.43;;
20482;SDS011;10400;53.198;6.592;2022-11-20T12:27:43;8.23;;;5.93;;
20482;SDS011;10400;53.198;6.592;2022-11-20T12:30:29;8.27;;;5.53;;
20482;SDS011;10400;53.198;6.592;2022-11-20T12:35:46;9.13;;;6.17;;
20482;SDS011;10400;53.198;6.592;2022-11-20T12:38:39;8.00;;;5.77;;
20482;SDS011;10400;53.198;6.592;2022-11-20T12:43:43;7.73;;;5.20;;
20482;SDS011;10400;53.198;6.592;2022-11-20T12:47:07;7.87;;;5.13;;
20482;SDS011;10400;53.198;6.592;2022-11-20T12:50:21;8.73;;;5.43;;
20482;SDS011;10400;53.198;6.592;2022-11-20T12:55:23;6.87;;;5.27;;
20482;SDS011;10400;53.198;6.592;2022-11-20T12:57:58;9.73;;;4.80;;
20482;SDS011;10400;53.198;6.592;2022-11-20T13:00:33;7.47;;;4.60;;
20482;SDS011;10400;53.198;6.592;2022-11-20T13:03:16;6.32;;;4.70;;
20482;SDS011;10400;53.198;6.592;2022-11-20T13:06:05;6.10;;;4.32;;
20482;SDS011;10400;53.198;6.592;2022-11-20T13:08:39;5.70;;;4.38;;
20482;SDS011;10400;53.198;6.592;2022-11-20T13:14:02;6.47;;;4.87;;
20482;SDS011;10400;53.198;6.592;2022-11-20T13:16:40;6.38;;;4.53;;
20482;SDS011;10400;53.198;6.592;2022-11-20T13:19:39;7.68;;;4.63;;
20482;SDS011;10400;53.198;6.592;2022-11-20T13:22:07;5.22;;;4.13;;
20482;SDS011;10400;53.198;6.592;2022-11-20T13:24:33;6.00;;;4.10;;
20482;SDS011;10400;53.198;6.592;2022-11-20T13:27:17;7.27;;;4.53;;
20482;SDS011;10400;53.198;6.592;2022-11-20T13:29:46;6.63;;;4.47;;
20482;SDS011;10400;53.198;6.592;2022-11-20T13:32:25;7.07;;;4.55;;
20482;SDS011;10400;53.198;6.592;2022-11-20T13:35:00;9.33;;;4.90;;
20482;SDS011;10400;53.198;6.592;2022-11-20T13:37:29;7.23;;;5.13;;
20482;SDS011;10400;53.198;6.592;2022-11-20T13:42:38;7.40;;;5.03;;
20482;SDS011;10400;53.198;6.592;2022-11-20T13:45:29;6.20;;;4.75;;
20482;SDS011;10400;53.198;6.592;2022-11-20T13:47:56;6.70;;;4.78;;
20482;SDS011;10400;53.198;6.592;2022-11-20T13:55:42;8.77;;;5.03;;
20482;SDS011;10400;53.198;6.592;2022-11-20T14:01:09;8.73;;;5.38;;
20482;SDS011;10400;53.198;6.592;2022-11-20T14:03:54;7.38;;;5.30;;
20482;SDS011;10400;53.198;6.592;2022-11-20T14:08:54;9.43;;;6.03;;
20482;SDS011;10400;53.198;6.592;2022-11-20T14:11:21;7.25;;;5.43;;
20482;SDS011;10400;53.198;6.592;2022-11-20T14:16:24;9.03;;;5.90;;
20482;SDS011;10400;53.198;6.592;2022-11-20T14:18:50;7.82;;;5.55;;
20482;SDS011;10400;53.198;6.592;2022-11-20T14:21:26;10.07;;;6.27;;
20482;SDS011;10400;53.198;6.592;2022-11-20T14:24:02;9.33;;;5.50;;
20482;SDS011;10400;53.198;6.592;2022-11-20T14:26:34;7.10;;;5.20;;
20482;SDS011;10400;53.198;6.592;2022-11-20T14:29:12;8.40;;;5.80;;
20482;SDS011;10400;53.198;6.592;2022-11-20T14:31:40;7.47;;;5.47;;
20482;SDS011;10400;53.198;6.592;2022-11-20T14:34:12;9.70;;;5.60;;
20482;SDS011;10400;53.198;6.592;2022-11-20T14:36:44;7.37;;;5.10;;
20482;SDS011;10400;53.198;6.592;2022-11-20T14:39:22;8.00;;;5.17;;
20482;SDS011;10400;53.198;6.592;2022-11-20T14:41:53;7.13;;;5.03;;
20482;SDS011;10400;53.198;6.592;2022-11-20T14:44:25;8.70;;;5.40;;
20482;SDS011;10400;53.198;6.592;2022-11-20T14:46:59;9.60;;;5.43;;
20482;SDS011;10400;53.198;6.592;2022-11-20T14:49:28;7.67;;;4.90;;
20482;SDS011;10400;53.198;6.592;2022-11-20T14:51:59;8.20;;;5.70;;
20482;SDS011;10400;53.198;6.592;2022-11-20T14:54:26;10.33;;;5.57;;
20482;SDS011;10400;53.198;6.592;2022-11-20T14:56:58;6.40;;;5.10;;
20482;SDS011;10400;53.198;6.592;2022-11-20T14:59:26;9.87;;;6.43;;
20482;SDS011;10400;53.198;6.592;2022-11-20T15:01:58;9.27;;;6.27;;
20482;SDS011;10400;53.198;6.592;2022-11-20T15:04:26;9.53;;;6.63;;
20482;SDS011;10400;53.198;6.592;2022-11-20T15:06:53;10.07;;;6.13;;
20482;SDS011;10400;53.198;6.592;2022-11-20T15:09:20;9.60;;;6.07;;
20482;SDS011;10400;53.198;6.592;2022-11-20T15:11:52;9.97;;;6.43;;
20482;SDS011;10400;53.198;6.592;2022-11-20T15:14:20;10.83;;;6.30;;
20482;SDS011;10400;53.198;6.592;2022-11-20T15:16:47;11.10;;;6.57;;
20482;SDS011;10400;53.198;6.592;2022-11-20T15:19:31;9.27;;;6.33;;
20482;SDS011;10400;53.198;6.592;2022-11-20T15:21:57;8.90;;;6.13;;
20482;SDS011;10400;53.198;6.592;2022-11-20T15:24:22;9.80;;;6.23;;
20482;SDS011;10400;53.198;6.592;2022-11-20T15:26:48;10.90;;;6.97;;
20482;SDS011;10400;53.198;6.592;2022-11-20T15:29:14;11.17;;;6.50;;
20482;SDS011;10400;53.198;6.592;2022-11-20T15:31:43;10.33;;;7.10;;
20482;SDS011;10400;53.198;6.592;2022-11-20T15:34:19;10.13;;;6.93;;
20482;SDS011;10400;53.198;6.592;2022-11-20T15:36:44;11.67;;;7.03;;
20482;SDS011;10400;53.198;6.592;2022-11-20T15:39:10;14.30;;;7.60;;
20482;SDS011;10400;53.198;6.592;2022-11-20T15:41:36;10.70;;;7.10;;
20482;SDS011;10400;53.198;6.592;2022-11-20T15:44:03;9.87;;;6.73;;
20482;SDS011;10400;53.198;6.592;2022-11-20T15:46:30;14.80;;;8.10;;
20482;SDS011;10400;53.198;6.592;2022-11-20T15:49:02;11.87;;;7.63;;
20482;SDS011;10400;53.198;6.592;2022-11-20T15:51:31;13.83;;;7.80;;
20482;SDS011;10400;53.198;6.592;2022-11-20T15:53:59;11.93;;;7.63;;
20482;SDS011;10400;53.198;6.592;2022-11-20T15:56:26;16.13;;;7.50;;
20482;SDS011;10400;53.198;6.592;2022-11-20T15:58:52;11.60;;;7.67;;
20482;SDS011;10400;53.198;6.592;2022-11-20T16:01:18;10.43;;;6.97;;
20482;SDS011;10400;53.198;6.592;2022-11-20T16:03:54;11.47;;;7.60;;
20482;SDS011;10400;53.198;6.592;2022-11-20T16:06:20;10.90;;;7.63;;
20482;SDS011;10400;53.198;6.592;2022-11-20T16:08:46;13.10;;;7.63;;
20482;SDS011;10400;53.198;6.592;2022-11-20T16:11:12;15.47;;;8.13;;
20482;SDS011;10400;53.198;6.592;2022-11-20T16:13:39;13.70;;;7.87;;
20482;SDS011;10400;53.198;6.592;2022-11-20T16:16:25;11.60;;;7.60;;